sensor_id;sensor_type;location;lat;lon;timestamp;temperature;humidity
55721;DHT22;41626;53.098;6.168;2023-06-04T00:00:46;11.00;99.90
55721;DHT22;41626;53.098;6.168;2023-06-04T00:03:12;10.90;99.90
55721;DHT22;41626;53.098;6.168;2023-06-04T00:05:38;10.90;99.90
55721;DHT22;41626;53.098;6.168;2023-06-04T00:08:03;10.80;99.90
55721;DHT22;41626;53.098;6.168;2023-06-04T00:10:29;10.80;99.90
55721;DHT22;41626;53.098;6.168;2023-06-04T00:12:56;10.80;99.90
55721;DHT22;41626;53.098;6.168;2023-06-04T00:15:22;10.90;99.90
55721;DHT22;41626;53.098;6.168;2023-06-04T00:17:48;10.80;99.90
55721;DHT22;41626;53.098;6.168;2023-06-04T00:20:13;10.90;99.90
55721;DHT22;41626;53.098;6.168;2023-06-04T00:22:39;10.80;99.90
55721;DHT22;41626;53.098;6.168;2023-06-04T00:25:08;10.70;99.90
55721;DHT22;41626;53.098;6.168;2023-06-04T00:27:34;10.60;99.90
55721;DHT22;41626;53.098;6.168;2023-06-04T00:30:00;10.50;99.90
55721;DHT22;41626;53.098;6.168;2023-06-04T00:32:25;10.50;99.90
55721;DHT22;41626;53.098;6.168;2023-06-04T00:34:54;10.60;99.90
55721;DHT22;41626;53.098;6.168;2023-06-04T00:37:29;10.50;99.90
55721;DHT22;41626;53.098;6.168;2023-06-04T00:39:55;10.50;99.90
55721;DHT22;41626;53.098;6.168;2023-06-04T00:42:21;10.60;99.90
55721;DHT22;41626;53.098;6.168;2023-06-04T00:44:47;10.40;99.90
55721;DHT22;41626;53.098;6.168;2023-06-04T00:47:14;10.40;99.90
55721;DHT22;41626;53.098;6.168;2023-06-04T00:49:40;10.50;99.90
55721;DHT22;41626;53.098;6.168;2023-06-04T00:52:08;10.40;99.90
55721;DHT22;41626;53.098;6.168;2023-06-04T00:54:35;10.40;99.90
55721;DHT22;41626;53.098;6.168;2023-06-04T00:57:01;10.40;99.90
55721;DHT22;41626;53.098;6.168;2023-06-04T00:59:27;10.40;99.90
55721;DHT22;41626;53.098;6.168;2023-06-04T01:02:00;10.50;99.90
55721;DHT22;41626;53.098;6.168;2023-06-04T01:06:57;10.40;99.90
55721;DHT22;41626;53.098;6.168;2023-06-04T01:09:26;10.50;99.90
55721;DHT22;41626;53.098;6.168;2023-06-04T01:11:53;10.40;99.90
55721;DHT22;41626;53.098;6.168;2023-06-04T01:14:18;10.30;99.90
55721;DHT22;41626;53.098;6.168;2023-06-04T01:16:49;10.30;99.90
55721;DHT22;41626;53.098;6.168;2023-06-04T01:21:49;10.30;99.90
55721;DHT22;41626;53.098;6.168;2023-06-04T01:24:18;10.20;99.90
55721;DHT22;41626;53.098;6.168;2023-06-04T01:26:46;10.30;99.90
55721;DHT22;41626;53.098;6.168;2023-06-04T01:29:13;10.10;99.90
55721;DHT22;41626;53.098;6.168;2023-06-04T01:31:39;10.40;99.90
55721;DHT22;41626;53.098;6.168;2023-06-04T01:34:07;10.10;99.90
55721;DHT22;41626;53.098;6.168;2023-06-04T01:36:33;10.10;99.90
55721;DHT22;41626;53.098;6.168;2023-06-04T01:38:59;10.20;99.90
55721;DHT22;41626;53.098;6.168;2023-06-04T01:41:26;10.30;99.90
55721;DHT22;41626;53.098;6.168;2023-06-04T01:43:51;10.20;99.90
55721;DHT22;41626;53.098;6.168;2023-06-04T01:46:17;10.30;99.90
55721;DHT22;41626;53.098;6.168;2023-06-04T01:48:43;10.30;99.90
55721;DHT22;41626;53.098;6.168;2023-06-04T01:51:09;10.20;99.90
55721;DHT22;41626;53.098;6.168;2023-06-04T01:53:34;10.00;99.90
55721;DHT22;41626;53.098;6.168;2023-06-04T01:56:00;10.10;99.90
55721;DHT22;41626;53.098;6.168;2023-06-04T01:58:26;10.10;99.90
55721;DHT22;41626;53.098;6.168;2023-06-04T02:00:55;10.10;99.90
55721;DHT22;41626;53.098;6.168;2023-06-04T02:03:25;10.40;99.90
55721;DHT22;41626;53.098;6.168;2023-06-04T02:05:51;10.30;99.90
55721;DHT22;41626;53.098;6.168;2023-06-04T02:08:17;10.40;99.90
55721;DHT22;41626;53.098;6.168;2023-06-04T02:10:46;10.40;99.90
55721;DHT22;41626;53.098;6.168;2023-06-04T02:13:12;10.30;99.90
55721;DHT22;41626;53.098;6.168;2023-06-04T02:15:38;10.20;99.90
55721;DHT22;41626;53.098;6.168;2023-06-04T02:18:24;10.10;99.90
55721;DHT22;41626;53.098;6.168;2023-06-04T02:20:50;10.10;99.90
55721;DHT22;41626;53.098;6.168;2023-06-04T02:23:17;10.20;99.90
55721;DHT22;41626;53.098;6.168;2023-06-04T02:25:43;10.10;99.90
55721;DHT22;41626;53.098;6.168;2023-06-04T02:28:13;10.30;99.90
55721;DHT22;41626;53.098;6.168;2023-06-04T02:30:39;10.10;99.90
55721;DHT22;41626;53.098;6.168;2023-06-04T02:33:04;10.20;99.90
55721;DHT22;41626;53.098;6.168;2023-06-04T02:35:31;10.10;99.90
55721;DHT22;41626;53.098;6.168;2023-06-04T02:37:57;10.10;99.90
55721;DHT22;41626;53.098;6.168;2023-06-04T02:40:26;10.00;99.90
55721;DHT22;41626;53.098;6.168;2023-06-04T02:42:55;10.00;99.90
55721;DHT22;41626;53.098;6.168;2023-06-04T02:45:22;10.20;99.90
55721;DHT22;41626;53.098;6.168;2023-06-04T02:47:48;9.90;99.90
55721;DHT22;41626;53.098;6.168;2023-06-04T02:50:14;10.10;99.90
55721;DHT22;41626;53.098;6.168;2023-06-04T02:52:43;10.10;99.90
55721;DHT22;41626;53.098;6.168;2023-06-04T02:55:09;10.10;99.90
55721;DHT22;41626;53.098;6.168;2023-06-04T02:57:35;10.00;99.90
55721;DHT22;41626;53.098;6.168;2023-06-04T03:00:02;10.10;99.90
55721;DHT22;41626;53.098;6.168;2023-06-04T03:02:36;10.10;99.90
55721;DHT22;41626;53.098;6.168;2023-06-04T03:05:01;9.80;99.90
55721;DHT22;41626;53.098;6.168;2023-06-04T03:07:27;9.80;99.90
55721;DHT22;41626;53.098;6.168;2023-06-04T03:09:53;9.90;99.90
55721;DHT22;41626;53.098;6.168;2023-06-04T03:12:19;9.70;99.90
55721;DHT22;41626;53.098;6.168;2023-06-04T03:14:44;9.70;99.90
55721;DHT22;41626;53.098;6.168;2023-06-04T03:17:10;9.70;99.90
55721;DHT22;41626;53.098;6.168;2023-06-04T03:19:37;9.90;99.90
55721;DHT22;41626;53.098;6.168;2023-06-04T03:22:05;9.80;99.90
55721;DHT22;41626;53.098;6.168;2023-06-04T03:24:36;9.90;99.90
55721;DHT22;41626;53.098;6.168;2023-06-04T03:27:06;9.80;99.90
55721;DHT22;41626;53.098;6.168;2023-06-04T03:29:33;10.00;99.90
55721;DHT22;41626;53.098;6.168;2023-06-04T03:31:59;9.90;99.90
55721;DHT22;41626;53.098;6.168;2023-06-04T03:34:25;9.90;99.90
55721;DHT22;41626;53.098;6.168;2023-06-04T03:36:54;9.80;99.90
55721;DHT22;41626;53.098;6.168;2023-06-04T03:39:21;9.90;99.90
55721;DHT22;41626;53.098;6.168;2023-06-04T03:41:47;9.90;99.90
55721;DHT22;41626;53.098;6.168;2023-06-04T03:44:14;9.90;99.90
55721;DHT22;41626;53.098;6.168;2023-06-04T03:46:43;10.10;99.90
55721;DHT22;41626;53.098;6.168;2023-06-04T03:49:10;10.00;99.90
55721;DHT22;41626;53.098;6.168;2023-06-04T03:51:37;10.10;99.90
55721;DHT22;41626;53.098;6.168;2023-06-04T03:54:02;10.00;99.90
55721;DHT22;41626;53.098;6.168;2023-06-04T03:56:28;10.00;99.90
55721;DHT22;41626;53.098;6.168;2023-06-04T03:58:54;10.10;99.90
55721;DHT22;41626;53.098;6.168;2023-06-04T04:01:20;10.10;99.90
55721;DHT22;41626;53.098;6.168;2023-06-04T04:03:46;10.10;99.90
55721;DHT22;41626;53.098;6.168;2023-06-04T04:06:15;10.30;99.90
55721;DHT22;41626;53.098;6.168;2023-06-04T04:08:41;10.30;99.90
55721;DHT22;41626;53.098;6.168;2023-06-04T04:11:11;10.50;99.90
55721;DHT22;41626;53.098;6.168;2023-06-04T04:13:37;10.40;99.90
55721;DHT22;41626;53.098;6.168;2023-06-04T04:16:03;10.70;99.90
55721;DHT22;41626;53.098;6.168;2023-06-04T04:18:33;10.90;99.90
55721;DHT22;41626;53.098;6.168;2023-06-04T04:20:59;10.50;99.90
55721;DHT22;41626;53.098;6.168;2023-06-04T04:23:24;10.70;99.90
55721;DHT22;41626;53.098;6.168;2023-06-04T04:25:50;10.60;99.90
55721;DHT22;41626;53.098;6.168;2023-06-04T04:28:16;10.60;99.90
55721;DHT22;41626;53.098;6.168;2023-06-04T04:30:43;11.00;99.90
55721;DHT22;41626;53.098;6.168;2023-06-04T04:33:10;11.10;99.90
55721;DHT22;41626;53.098;6.168;2023-06-04T04:35:36;11.10;99.90
55721;DHT22;41626;53.098;6.168;2023-06-04T04:38:02;10.90;99.90
55721;DHT22;41626;53.098;6.168;2023-06-04T04:40:31;10.90;99.90
55721;DHT22;41626;53.098;6.168;2023-06-04T04:42:58;11.10;99.90
55721;DHT22;41626;53.098;6.168;2023-06-04T04:45:23;11.30;99.90
55721;DHT22;41626;53.098;6.168;2023-06-04T04:47:49;11.70;99.90
55721;DHT22;41626;53.098;6.168;2023-06-04T04:50:16;11.00;99.90
55721;DHT22;41626;53.098;6.168;2023-06-04T04:52:42;11.30;99.90
55721;DHT22;41626;53.098;6.168;2023-06-04T04:55:08;11.20;99.90
55721;DHT22;41626;53.098;6.168;2023-06-04T04:57:34;11.40;99.90
55721;DHT22;41626;53.098;6.168;2023-06-04T04:59:59;11.20;99.90
55721;DHT22;41626;53.098;6.168;2023-06-04T05:02:25;11.20;99.90
55721;DHT22;41626;53.098;6.168;2023-06-04T05:04:51;11.40;99.90
55721;DHT22;41626;53.098;6.168;2023-06-04T05:07:17;11.30;99.90
55721;DHT22;41626;53.098;6.168;2023-06-04T05:09:42;11.40;99.90
55721;DHT22;41626;53.098;6.168;2023-06-04T05:12:08;11.60;99.90
55721;DHT22;41626;53.098;6.168;2023-06-04T05:14:34;11.40;99.90
55721;DHT22;41626;53.098;6.168;2023-06-04T05:17:01;11.70;99.90
55721;DHT22;41626;53.098;6.168;2023-06-04T05:19:28;11.50;99.90
55721;DHT22;41626;53.098;6.168;2023-06-04T05:21:58;11.70;99.90
55721;DHT22;41626;53.098;6.168;2023-06-04T05:24:24;11.80;99.90
55721;DHT22;41626;53.098;6.168;2023-06-04T05:26:50;11.80;99.90
55721;DHT22;41626;53.098;6.168;2023-06-04T05:29:15;11.80;99.90
55721;DHT22;41626;53.098;6.168;2023-06-04T05:31:41;11.90;99.90
55721;DHT22;41626;53.098;6.168;2023-06-04T05:34:07;11.80;99.90
55721;DHT22;41626;53.098;6.168;2023-06-04T05:36:34;12.00;99.90
55721;DHT22;41626;53.098;6.168;2023-06-04T05:38:59;12.00;99.90
55721;DHT22;41626;53.098;6.168;2023-06-04T05:41:26;12.30;99.90
55721;DHT22;41626;53.098;6.168;2023-06-04T05:43:52;12.30;99.90
55721;DHT22;41626;53.098;6.168;2023-06-04T05:46:19;12.50;99.90
55721;DHT22;41626;53.098;6.168;2023-06-04T05:48:45;12.70;99.90
55721;DHT22;41626;53.098;6.168;2023-06-04T05:51:13;12.80;99.90
55721;DHT22;41626;53.098;6.168;2023-06-04T05:53:39;13.20;99.90
55721;DHT22;41626;53.098;6.168;2023-06-04T05:56:05;12.70;99.90
55721;DHT22;41626;53.098;6.168;2023-06-04T05:58:33;12.70;99.90
55721;DHT22;41626;53.098;6.168;2023-06-04T06:00:59;12.60;99.90
55721;DHT22;41626;53.098;6.168;2023-06-04T06:03:25;12.70;99.90
55721;DHT22;41626;53.098;6.168;2023-06-04T06:05:53;12.60;99.90
55721;DHT22;41626;53.098;6.168;2023-06-04T06:08:20;12.60;99.90
55721;DHT22;41626;53.098;6.168;2023-06-04T06:10:46;12.70;99.90
55721;DHT22;41626;53.098;6.168;2023-06-04T06:13:12;12.90;99.90
55721;DHT22;41626;53.098;6.168;2023-06-04T06:15:40;13.00;99.90
55721;DHT22;41626;53.098;6.168;2023-06-04T06:18:06;12.90;99.90
55721;DHT22;41626;53.098;6.168;2023-06-04T06:20:31;12.90;99.90
55721;DHT22;41626;53.098;6.168;2023-06-04T06:23:06;13.20;99.90
55721;DHT22;41626;53.098;6.168;2023-06-04T06:25:32;13.20;99.90
55721;DHT22;41626;53.098;6.168;2023-06-04T06:27:57;13.20;99.90
55721;DHT22;41626;53.098;6.168;2023-06-04T06:30:23;13.50;99.90
55721;DHT22;41626;53.098;6.168;2023-06-04T06:32:49;13.30;99.90
55721;DHT22;41626;53.098;6.168;2023-06-04T06:35:16;13.60;99.90
55721;DHT22;41626;53.098;6.168;2023-06-04T06:37:42;13.60;99.90
55721;DHT22;41626;53.098;6.168;2023-06-04T06:40:09;13.50;99.90
55721;DHT22;41626;53.098;6.168;2023-06-04T06:42:35;13.60;99.90
55721;DHT22;41626;53.098;6.168;2023-06-04T06:45:01;13.70;99.90
55721;DHT22;41626;53.098;6.168;2023-06-04T06:47:26;13.60;99.90
55721;DHT22;41626;53.098;6.168;2023-06-04T06:49:52;14.20;99.90
55721;DHT22;41626;53.098;6.168;2023-06-04T06:52:18;15.30;99.90
55721;DHT22;41626;53.098;6.168;2023-06-04T06:54:45;15.60;99.90
55721;DHT22;41626;53.098;6.168;2023-06-04T06:57:11;15.30;99.90
55721;DHT22;41626;53.098;6.168;2023-06-04T06:59:37;15.80;99.90
55721;DHT22;41626;53.098;6.168;2023-06-04T07:02:03;16.10;99.90
55721;DHT22;41626;53.098;6.168;2023-06-04T07:04:29;16.80;99.90
55721;DHT22;41626;53.098;6.168;2023-06-04T07:06:55;17.40;99.90
55721;DHT22;41626;53.098;6.168;2023-06-04T07:09:20;17.70;99.90
55721;DHT22;41626;53.098;6.168;2023-06-04T07:11:46;17.90;99.90
55721;DHT22;41626;53.098;6.168;2023-06-04T07:14:12;17.80;99.90
55721;DHT22;41626;53.098;6.168;2023-06-04T07:16:37;18.10;99.90
55721;DHT22;41626;53.098;6.168;2023-06-04T07:19:03;17.80;99.90
55721;DHT22;41626;53.098;6.168;2023-06-04T07:21:28;17.80;99.90
55721;DHT22;41626;53.098;6.168;2023-06-04T07:23:54;18.00;99.90
55721;DHT22;41626;53.098;6.168;2023-06-04T07:26:20;17.80;99.90
55721;DHT22;41626;53.098;6.168;2023-06-04T07:28:45;18.40;99.90
55721;DHT22;41626;53.098;6.168;2023-06-04T07:31:15;18.00;99.90
55721;DHT22;41626;53.098;6.168;2023-06-04T07:33:41;18.20;99.90
55721;DHT22;41626;53.098;6.168;2023-06-04T07:36:15;18.60;99.90
55721;DHT22;41626;53.098;6.168;2023-06-04T07:38:41;18.00;99.90
55721;DHT22;41626;53.098;6.168;2023-06-04T07:41:08;19.10;99.90
55721;DHT22;41626;53.098;6.168;2023-06-04T07:43:34;18.90;99.90
55721;DHT22;41626;53.098;6.168;2023-06-04T07:46:01;17.60;99.90
55721;DHT22;41626;53.098;6.168;2023-06-04T07:48:27;16.90;99.90
55721;DHT22;41626;53.098;6.168;2023-06-04T07:50:59;16.50;99.90
55721;DHT22;41626;53.098;6.168;2023-06-04T07:53:25;16.50;99.90
55721;DHT22;41626;53.098;6.168;2023-06-04T07:55:52;16.50;99.90
55721;DHT22;41626;53.098;6.168;2023-06-04T07:58:17;16.60;99.90
55721;DHT22;41626;53.098;6.168;2023-06-04T08:00:43;17.30;99.90
55721;DHT22;41626;53.098;6.168;2023-06-04T08:03:09;16.90;99.90
55721;DHT22;41626;53.098;6.168;2023-06-04T08:05:35;16.60;99.90
55721;DHT22;41626;53.098;6.168;2023-06-04T08:08:01;16.60;99.90
55721;DHT22;41626;53.098;6.168;2023-06-04T08:10:27;17.10;99.90
55721;DHT22;41626;53.098;6.168;2023-06-04T08:12:53;16.90;99.90
55721;DHT22;41626;53.098;6.168;2023-06-04T08:15:18;17.30;99.90
55721;DHT22;41626;53.098;6.168;2023-06-04T08:17:44;16.80;99.90
55721;DHT22;41626;53.098;6.168;2023-06-04T08:20:10;16.90;99.90
55721;DHT22;41626;53.098;6.168;2023-06-04T08:22:35;17.00;99.90
55721;DHT22;41626;53.098;6.168;2023-06-04T08:25:01;17.20;99.90
55721;DHT22;41626;53.098;6.168;2023-06-04T08:27:27;17.30;99.90
55721;DHT22;41626;53.098;6.168;2023-06-04T08:29:53;17.40;99.90
55721;DHT22;41626;53.098;6.168;2023-06-04T08:32:18;17.10;99.90
55721;DHT22;41626;53.098;6.168;2023-06-04T08:34:44;17.30;99.90
55721;DHT22;41626;53.098;6.168;2023-06-04T08:37:10;17.40;99.90
55721;DHT22;41626;53.098;6.168;2023-06-04T08:39:36;17.30;99.90
55721;DHT22;41626;53.098;6.168;2023-06-04T08:42:04;17.20;99.90
55721;DHT22;41626;53.098;6.168;2023-06-04T08:44:33;17.60;99.90
55721;DHT22;41626;53.098;6.168;2023-06-04T08:47:03;17.90;99.90
55721;DHT22;41626;53.098;6.168;2023-06-04T08:49:35;17.20;99.90
55721;DHT22;41626;53.098;6.168;2023-06-04T08:52:04;17.40;99.90
55721;DHT22;41626;53.098;6.168;2023-06-04T08:54:32;17.50;99.90
55721;DHT22;41626;53.098;6.168;2023-06-04T08:56:57;17.80;99.90
55721;DHT22;41626;53.098;6.168;2023-06-04T08:59:23;17.80;99.90
55721;DHT22;41626;53.098;6.168;2023-06-04T09:01:54;17.80;99.90
55721;DHT22;41626;53.098;6.168;2023-06-04T09:04:21;17.50;99.90
55721;DHT22;41626;53.098;6.168;2023-06-04T09:06:47;17.80;99.90
55721;DHT22;41626;53.098;6.168;2023-06-04T09:09:15;18.10;99.90
55721;DHT22;41626;53.098;6.168;2023-06-04T09:11:54;17.60;99.90
55721;DHT22;41626;53.098;6.168;2023-06-04T09:14:20;17.40;99.90
55721;DHT22;41626;53.098;6.168;2023-06-04T09:16:51;17.60;99.90
55721;DHT22;41626;53.098;6.168;2023-06-04T09:19:18;18.10;99.90
55721;DHT22;41626;53.098;6.168;2023-06-04T09:21:54;17.90;99.90
55721;DHT22;41626;53.098;6.168;2023-06-04T09:24:22;18.10;99.90
55721;DHT22;41626;53.098;6.168;2023-06-04T09:26:48;18.20;99.90
55721;DHT22;41626;53.098;6.168;2023-06-04T09:29:14;18.50;99.90
55721;DHT22;41626;53.098;6.168;2023-06-04T09:31:41;18.50;99.90
55721;DHT22;41626;53.098;6.168;2023-06-04T09:34:07;18.20;99.90
55721;DHT22;41626;53.098;6.168;2023-06-04T09:36:33;17.90;99.90
55721;DHT22;41626;53.098;6.168;2023-06-04T09:39:01;17.90;99.90
55721;DHT22;41626;53.098;6.168;2023-06-04T09:41:28;18.00;99.90
55721;DHT22;41626;53.098;6.168;2023-06-04T09:44:01;17.90;99.90
55721;DHT22;41626;53.098;6.168;2023-06-04T09:46:28;17.90;99.90
55721;DHT22;41626;53.098;6.168;2023-06-04T09:49:03;17.90;99.90
55721;DHT22;41626;53.098;6.168;2023-06-04T09:51:29;18.60;99.90
55721;DHT22;41626;53.098;6.168;2023-06-04T09:53:56;18.70;99.90
55721;DHT22;41626;53.098;6.168;2023-06-04T09:56:22;18.60;99.90
55721;DHT22;41626;53.098;6.168;2023-06-04T09:58:54;18.10;99.90
55721;DHT22;41626;53.098;6.168;2023-06-04T10:01:22;18.10;99.90
55721;DHT22;41626;53.098;6.168;2023-06-04T10:03:50;18.20;99.90
55721;DHT22;41626;53.098;6.168;2023-06-04T10:06:19;18.60;99.90
55721;DHT22;41626;53.098;6.168;2023-06-04T10:08:48;18.20;99.90
55721;DHT22;41626;53.098;6.168;2023-06-04T10:11:17;18.30;99.90
55721;DHT22;41626;53.098;6.168;2023-06-04T10:14:00;18.40;99.90
55721;DHT22;41626;53.098;6.168;2023-06-04T10:16:28;18.50;99.90
55721;DHT22;41626;53.098;6.168;2023-06-04T10:18:57;18.40;99.90
55721;DHT22;41626;53.098;6.168;2023-06-04T10:21:23;18.30;99.90
55721;DHT22;41626;53.098;6.168;2023-06-04T10:23:49;18.40;99.90
55721;DHT22;41626;53.098;6.168;2023-06-04T10:26:16;18.30;99.90
55721;DHT22;41626;53.098;6.168;2023-06-04T10:28:43;18.50;99.90
55721;DHT22;41626;53.098;6.168;2023-06-04T10:31:12;18.60;99.90
55721;DHT22;41626;53.098;6.168;2023-06-04T10:33:38;18.90;99.90
55721;DHT22;41626;53.098;6.168;2023-06-04T10:36:24;19.40;99.90
55721;DHT22;41626;53.098;6.168;2023-06-04T10:38:52;19.20;99.90
55721;DHT22;41626;53.098;6.168;2023-06-04T10:41:19;19.10;99.90
55721;DHT22;41626;53.098;6.168;2023-06-04T10:43:45;19.00;99.90
55721;DHT22;41626;53.098;6.168;2023-06-04T10:46:12;18.40;99.90
55721;DHT22;41626;53.098;6.168;2023-06-04T10:49:09;18.70;99.90
55721;DHT22;41626;53.098;6.168;2023-06-04T10:51:35;18.90;99.90
55721;DHT22;41626;53.098;6.168;2023-06-04T10:54:03;18.60;99.90
55721;DHT22;41626;53.098;6.168;2023-06-04T10:56:34;18.70;99.90
55721;DHT22;41626;53.098;6.168;2023-06-04T10:59:19;18.90;99.90
55721;DHT22;41626;53.098;6.168;2023-06-04T11:01:45;18.80;99.90
55721;DHT22;41626;53.098;6.168;2023-06-04T11:04:21;18.90;99.90
55721;DHT22;41626;53.098;6.168;2023-06-04T11:06:48;19.10;99.90
55721;DHT22;41626;53.098;6.168;2023-06-04T11:09:14;18.90;99.90
55721;DHT22;41626;53.098;6.168;2023-06-04T11:11:44;19.00;99.90
55721;DHT22;41626;53.098;6.168;2023-06-04T11:14:11;19.10;99.90
55721;DHT22;41626;53.098;6.168;2023-06-04T11:16:41;19.00;99.90
55721;DHT22;41626;53.098;6.168;2023-06-04T11:19:06;18.90;99.90
55721;DHT22;41626;53.098;6.168;2023-06-04T11:21:34;19.20;99.90
55721;DHT22;41626;53.098;6.168;2023-06-04T11:24:03;18.90;99.90
55721;DHT22;41626;53.098;6.168;2023-06-04T11:26:36;18.90;99.90
55721;DHT22;41626;53.098;6.168;2023-06-04T11:29:06;18.80;99.90
55721;DHT22;41626;53.098;6.168;2023-06-04T11:31:42;19.30;99.90
55721;DHT22;41626;53.098;6.168;2023-06-04T11:34:08;19.50;99.90
55721;DHT22;41626;53.098;6.168;2023-06-04T11:36:34;19.40;99.90
55721;DHT22;41626;53.098;6.168;2023-06-04T11:39:02;19.60;99.90
55721;DHT22;41626;53.098;6.168;2023-06-04T11:41:33;19.10;99.90
55721;DHT22;41626;53.098;6.168;2023-06-04T11:44:04;19.30;99.90
55721;DHT22;41626;53.098;6.168;2023-06-04T11:46:32;19.20;99.90
55721;DHT22;41626;53.098;6.168;2023-06-04T11:48:58;19.10;99.90
55721;DHT22;41626;53.098;6.168;2023-06-04T11:51:24;18.90;99.90
55721;DHT22;41626;53.098;6.168;2023-06-04T11:53:50;19.20;99.90
55721;DHT22;41626;53.098;6.168;2023-06-04T11:56:16;19.50;99.90
55721;DHT22;41626;53.098;6.168;2023-06-04T11:58:43;19.50;99.90
55721;DHT22;41626;53.098;6.168;2023-06-04T12:01:09;19.10;99.90
55721;DHT22;41626;53.098;6.168;2023-06-04T12:03:39;19.10;99.90
55721;DHT22;41626;53.098;6.168;2023-06-04T12:06:17;19.60;99.90
55721;DHT22;41626;53.098;6.168;2023-06-04T12:11:35;19.30;99.90
55721;DHT22;41626;53.098;6.168;2023-06-04T12:14:04;19.40;99.90
55721;DHT22;41626;53.098;6.168;2023-06-04T12:16:31;18.80;99.90
55721;DHT22;41626;53.098;6.168;2023-06-04T12:19:07;19.40;99.90
55721;DHT22;41626;53.098;6.168;2023-06-04T12:21:33;19.10;99.90
55721;DHT22;41626;53.098;6.168;2023-06-04T12:26:34;19.70;99.90
55721;DHT22;41626;53.098;6.168;2023-06-04T12:29:18;19.40;99.90
55721;DHT22;41626;53.098;6.168;2023-06-04T12:31:46;19.50;99.90
55721;DHT22;41626;53.098;6.168;2023-06-04T12:34:15;19.40;99.90
55721;DHT22;41626;53.098;6.168;2023-06-04T12:36:41;19.00;99.90
55721;DHT22;41626;53.098;6.168;2023-06-04T12:39:08;19.70;99.90
55721;DHT22;41626;53.098;6.168;2023-06-04T12:41:34;19.30;99.90
55721;DHT22;41626;53.098;6.168;2023-06-04T12:44:00;19.40;99.90
55721;DHT22;41626;53.098;6.168;2023-06-04T12:46:27;19.40;99.90
55721;DHT22;41626;53.098;6.168;2023-06-04T12:48:54;18.90;99.90
55721;DHT22;41626;53.098;6.168;2023-06-04T12:51:20;19.30;99.90
55721;DHT22;41626;53.098;6.168;2023-06-04T12:53:47;19.50;99.90
55721;DHT22;41626;53.098;6.168;2023-06-04T12:56:13;19.60;99.90
55721;DHT22;41626;53.098;6.168;2023-06-04T12:58:39;18.90;99.90
55721;DHT22;41626;53.098;6.168;2023-06-04T13:01:06;19.40;99.90
55721;DHT22;41626;53.098;6.168;2023-06-04T13:03:33;19.10;99.90
55721;DHT22;41626;53.098;6.168;2023-06-04T13:06:01;19.30;99.90
55721;DHT22;41626;53.098;6.168;2023-06-04T13:08:27;19.20;99.90
55721;DHT22;41626;53.098;6.168;2023-06-04T13:10:52;19.30;99.90
55721;DHT22;41626;53.098;6.168;2023-06-04T13:13:19;19.20;99.90
55721;DHT22;41626;53.098;6.168;2023-06-04T13:15:45;18.90;99.90
55721;DHT22;41626;53.098;6.168;2023-06-04T13:18:11;19.20;99.90
55721;DHT22;41626;53.098;6.168;2023-06-04T13:20:39;19.10;99.90
55721;DHT22;41626;53.098;6.168;2023-06-04T13:23:05;19.10;99.90
55721;DHT22;41626;53.098;6.168;2023-06-04T13:25:30;19.20;99.90
55721;DHT22;41626;53.098;6.168;2023-06-04T13:28:02;19.10;99.90
55721;DHT22;41626;53.098;6.168;2023-06-04T13:30:27;19.00;99.90
55721;DHT22;41626;53.098;6.168;2023-06-04T13:32:53;19.00;99.90
55721;DHT22;41626;53.098;6.168;2023-06-04T13:35:19;18.60;99.90
55721;DHT22;41626;53.098;6.168;2023-06-04T13:37:45;18.90;99.90
55721;DHT22;41626;53.098;6.168;2023-06-04T13:40:11;18.80;99.90
55721;DHT22;41626;53.098;6.168;2023-06-04T13:42:37;19.40;99.90
55721;DHT22;41626;53.098;6.168;2023-06-04T13:45:03;19.10;99.90
55721;DHT22;41626;53.098;6.168;2023-06-04T13:47:29;18.80;99.90
55721;DHT22;41626;53.098;6.168;2023-06-04T13:49:55;19.10;99.90
55721;DHT22;41626;53.098;6.168;2023-06-04T13:52:20;19.00;99.90
55721;DHT22;41626;53.098;6.168;2023-06-04T13:54:46;18.80;99.90
55721;DHT22;41626;53.098;6.168;2023-06-04T13:57:12;18.80;99.90
55721;DHT22;41626;53.098;6.168;2023-06-04T13:59:38;18.60;99.90
55721;DHT22;41626;53.098;6.168;2023-06-04T14:02:04;18.50;99.90
55721;DHT22;41626;53.098;6.168;2023-06-04T14:04:31;19.10;99.90
55721;DHT22;41626;53.098;6.168;2023-06-04T14:06:57;19.00;99.90
55721;DHT22;41626;53.098;6.168;2023-06-04T14:09:23;19.00;99.90
55721;DHT22;41626;53.098;6.168;2023-06-04T14:11:48;18.40;99.90
55721;DHT22;41626;53.098;6.168;2023-06-04T14:14:19;18.70;99.90
55721;DHT22;41626;53.098;6.168;2023-06-04T14:16:45;18.70;99.90
55721;DHT22;41626;53.098;6.168;2023-06-04T14:19:11;18.60;99.90
55721;DHT22;41626;53.098;6.168;2023-06-04T14:21:37;18.60;99.90
55721;DHT22;41626;53.098;6.168;2023-06-04T14:24:03;18.80;99.90
55721;DHT22;41626;53.098;6.168;2023-06-04T14:26:29;18.60;99.90
55721;DHT22;41626;53.098;6.168;2023-06-04T14:28:55;18.70;99.90
55721;DHT22;41626;53.098;6.168;2023-06-04T14:31:21;18.40;99.90
55721;DHT22;41626;53.098;6.168;2023-06-04T14:33:46;18.30;99.90
55721;DHT22;41626;53.098;6.168;2023-06-04T14:36:12;18.10;99.90
55721;DHT22;41626;53.098;6.168;2023-06-04T14:38:38;18.30;99.90
55721;DHT22;41626;53.098;6.168;2023-06-04T14:41:04;18.50;99.90
55721;DHT22;41626;53.098;6.168;2023-06-04T14:43:30;18.40;99.90
55721;DHT22;41626;53.098;6.168;2023-06-04T14:45:56;18.10;99.90
55721;DHT22;41626;53.098;6.168;2023-06-04T14:48:21;18.20;99.90
55721;DHT22;41626;53.098;6.168;2023-06-04T14:50:47;17.90;99.90
55721;DHT22;41626;53.098;6.168;2023-06-04T14:53:13;18.20;99.90
55721;DHT22;41626;53.098;6.168;2023-06-04T14:55:39;18.60;99.90
55721;DHT22;41626;53.098;6.168;2023-06-04T14:58:05;18.20;99.90
55721;DHT22;41626;53.098;6.168;2023-06-04T15:00:31;18.20;99.90
55721;DHT22;41626;53.098;6.168;2023-06-04T15:02:57;18.30;99.90
55721;DHT22;41626;53.098;6.168;2023-06-04T15:05:23;18.30;99.90
55721;DHT22;41626;53.098;6.168;2023-06-04T15:07:48;18.20;99.90
55721;DHT22;41626;53.098;6.168;2023-06-04T15:10:14;17.60;99.90
55721;DHT22;41626;53.098;6.168;2023-06-04T15:12:40;17.60;99.90
55721;DHT22;41626;53.098;6.168;2023-06-04T15:15:07;18.10;99.90
55721;DHT22;41626;53.098;6.168;2023-06-04T15:17:34;17.70;99.90
55721;DHT22;41626;53.098;6.168;2023-06-04T15:20:00;17.80;99.90
55721;DHT22;41626;53.098;6.168;2023-06-04T15:22:26;17.80;99.90
55721;DHT22;41626;53.098;6.168;2023-06-04T15:24:53;17.80;99.90
55721;DHT22;41626;53.098;6.168;2023-06-04T15:27:18;17.90;99.90
55721;DHT22;41626;53.098;6.168;2023-06-04T15:29:44;17.60;99.90
55721;DHT22;41626;53.098;6.168;2023-06-04T15:32:10;17.10;99.90
55721;DHT22;41626;53.098;6.168;2023-06-04T15:34:36;17.80;99.90
55721;DHT22;41626;53.098;6.168;2023-06-04T15:37:02;17.40;99.90
55721;DHT22;41626;53.098;6.168;2023-06-04T15:39:28;17.30;99.90
55721;DHT22;41626;53.098;6.168;2023-06-04T15:41:53;17.00;99.90